Time;durP1;ratioP1;P1;durP2;ratioP2;P2;SDS_P1;SDS_P2;PMS_P1;PMS_P2;Temp;Humidity;BMP_temperature;BMP_pressure;BME280_temperature;BME280_humidity;BME280_pressure;Samples;Min_cycle;Max_cycle;Signal;HPM_P1;HPM_P2
2024/04/25 00:00:55;;;;;;;3.22;2.20;;;3.20;99.90;;;;;;5452307;26;20230;-65
2024/04/25 00:03:21;;;;;;;6.63;3.13;;;3.20;99.90;;;;;;5452584;26;20223;-65
2024/04/25 00:05:47;;;;;;;3.80;3.03;;;3.30;99.90;;;;;;5451183;26;20214;-65
2024/04/25 00:08:12;;;;;;;3.97;3.60;;;3.40;99.90;;;;;;5452392;26;20210;-65
2024/04/25 00:10:39;;;;;;;8.40;3.03;;;3.40;99.90;;;;;;5451990;26;20226;-66
2024/04/25 00:13:06;;;;;;;3.25;2.30;;;3.30;99.90;;;;;;5452629;26;20207;-65
2024/04/25 00:15:32;;;;;;;3.35;2.55;;;3.30;99.90;;;;;;5452140;26;20226;-65
2024/04/25 00:17:58;;;;;;;3.25;2.67;;;3.40;99.90;;;;;;5452202;26;20215;-65
2024/04/25 00:20:23;;;;;;;6.20;3.07;;;3.40;99.90;;;;;;5452094;26;20334;-65
2024/04/25 00:22:49;;;;;;;3.40;2.57;;;3.40;99.90;;;;;;5452058;26;20219;-65
2024/04/25 00:25:15;;;;;;;2.83;2.60;;;3.40;99.90;;;;;;5452083;26;20222;-65
2024/04/25 00:27:41;;;;;;;4.28;2.55;;;3.20;99.90;;;;;;5451945;26;21025;-65
2024/04/25 00:30:08;;;;;;;2.92;2.60;;;3.20;99.90;;;;;;5451782;26;20214;-65
2024/04/25 00:32:34;;;;;;;2.90;2.60;;;3.20;99.90;;;;;;5451782;26;20230;-65
2024/04/25 00:35:02;;;;;;;5.10;3.75;;;3.20;99.90;;;;;;5452125;26;20310;-65
2024/04/25 00:37:28;;;;;;;6.55;3.65;;;3.20;99.90;;;;;;5451987;26;20222;-65
2024/04/25 00:39:55;;;;;;;5.75;3.50;;;3.30;99.90;;;;;;5451737;26;20787;-65
2024/04/25 00:42:22;;;;;;;2.30;2.15;;;3.20;99.90;;;;;;5451777;26;20493;-65
2024/04/25 00:44:49;;;;;;;4.13;2.70;;;3.20;99.90;;;;;;5451710;26;20214;-65
2024/04/25 00:47:20;;;;;;;5.03;3.13;;;3.20;99.90;;;;;;5451840;26;20253;-65
2024/04/25 00:49:47;;;;;;;4.18;2.85;;;3.10;99.90;;;;;;5451695;26;20596;-66
2024/04/25 00:52:15;;;;;;;4.10;3.45;;;3.20;99.90;;;;;;5451569;26;20231;-65
2024/04/25 00:54:42;;;;;;;3.72;2.90;;;3.20;99.90;;;;;;5451622;26;20218;-65
2024/04/25 00:57:10;;;;;;;5.60;5.05;;;3.20;99.90;;;;;;5451803;26;20269;-65
2024/04/25 00:59:41;;;;;;;4.78;3.05;;;3.10;99.90;;;;;;5451465;26;20573;-65
2024/04/25 01:02:09;;;;;;;4.35;2.90;;;3.10;99.90;;;;;;5451390;26;20241;-65
2024/04/25 01:04:35;;;;;;;4.38;3.42;;;3.20;99.90;;;;;;5451520;26;20210;-66
2024/04/25 01:07:03;;;;;;;3.15;2.85;;;3.30;99.90;;;;;;5451476;26;20222;-65
2024/04/25 01:09:29;;;;;;;4.93;3.55;;;3.20;99.90;;;;;;5451506;26;20322;-65
2024/04/25 01:11:55;;;;;;;4.93;3.20;;;3.20;99.90;;;;;;5451213;26;20234;-65
2024/04/25 01:14:21;;;;;;;3.45;2.92;;;3.20;99.90;;;;;;5451339;26;20226;-65
2024/04/25 01:16:46;;;;;;;2.37;2.20;;;3.30;99.90;;;;;;5451502;26;20652;-65
2024/04/25 01:19:13;;;;;;;2.50;2.30;;;3.50;99.90;;;;;;5451573;26;20222;-65
2024/04/25 01:21:39;;;;;;;4.03;3.63;;;3.60;99.90;;;;;;5451440;26;20280;-65
2024/04/25 01:24:06;;;;;;;4.40;3.23;;;3.60;99.90;;;;;;5451512;26;20210;-65
2024/04/25 01:26:32;;;;;;;5.10;3.42;;;3.50;99.90;;;;;;5451442;26;20455;-65
2024/04/25 01:29:00;;;;;;;2.33;2.13;;;3.50;99.90;;;;;;5451111;26;20327;-65
2024/04/25 01:31:26;;;;;;;6.10;3.25;;;3.60;99.90;;;;;;5450649;26;20464;-65
2024/04/25 01:33:53;;;;;;;5.10;3.47;;;3.50;99.90;;;;;;5451138;26;20261;-65
2024/04/25 01:36:19;;;;;;;3.83;3.45;;;3.50;99.90;;;;;;5450906;26;20534;-65
2024/04/25 01:38:45;;;;;;;7.20;2.60;;;3.60;99.90;;;;;;5451237;26;20215;-65
2024/04/25 01:41:11;;;;;;;3.70;3.33;;;3.60;99.90;;;;;;5450426;26;20472;-66
2024/04/25 01:43:36;;;;;;;3.00;2.80;;;3.70;99.90;;;;;;5450822;26;20226;-65
2024/04/25 01:46:02;;;;;;;4.57;2.80;;;3.60;99.90;;;;;;5450941;26;20681;-65
2024/04/25 01:48:28;;;;;;;8.53;3.30;;;3.70;99.90;;;;;;5451022;26;20210;-65
2024/04/25 01:50:53;;;;;;;2.90;2.70;;;3.70;99.90;;;;;;5450360;26;20459;-66
2024/04/25 01:53:19;;;;;;;2.93;2.60;;;3.80;99.90;;;;;;5450909;26;20225;-65
2024/04/25 01:55:44;;;;;;;5.17;2.63;;;3.70;99.90;;;;;;5450843;26;20206;-65
2024/04/25 01:58:10;;;;;;;3.73;3.40;;;3.70;99.90;;;;;;5450702;26;20207;-65
2024/04/25 02:00:36;;;;;;;3.10;2.40;;;3.60;99.90;;;;;;5450340;26;20269;-65
2024/04/25 02:03:01;;;;;;;4.70;3.77;;;3.60;99.90;;;;;;5450915;26;20266;-65
2024/04/25 02:05:27;;;;;;;3.13;2.93;;;3.60;99.90;;;;;;5450488;26;20762;-65
2024/04/25 02:07:54;;;;;;;3.27;2.80;;;3.50;99.90;;;;;;5450490;26;20314;-65
2024/04/25 02:10:20;;;;;;;6.13;3.75;;;3.50;99.90;;;;;;5450196;26;20589;-65
2024/04/25 02:12:46;;;;;;;3.47;2.80;;;3.50;99.90;;;;;;5450261;26;20323;-65
2024/04/25 02:15:11;;;;;;;2.40;2.20;;;3.40;99.90;;;;;;5450437;26;20207;-65
2024/04/25 02:17:39;;;;;;;3.90;3.10;;;3.40;99.90;;;;;;5450246;26;20262;-65
2024/04/25 02:25:13;;;;;;;5.80;3.15;;;3.40;99.90;;;;;;5449967;26;20223;-65
2024/04/25 02:25:36;;;;;;;3.63;3.30;;;3.30;99.90;;;;;;5450223;26;20265;-65
2024/04/25 02:28:01;;;;;;;5.43;2.60;;;3.30;99.90;;;;;;5450082;26;20214;-65
2024/04/25 02:30:27;;;;;;;3.50;2.33;;;3.30;99.90;;;;;;5453202;26;20226;-65
2024/04/25 02:32:53;;;;;;;4.47;3.60;;;3.20;99.90;;;;;;5453786;26;20214;-65
2024/04/25 02:35:18;;;;;;;3.20;2.77;;;3.20;99.90;;;;;;5453884;26;20211;-65
2024/04/25 02:37:44;;;;;;;3.00;2.67;;;3.10;99.90;;;;;;5453785;26;20261;-65
2024/04/25 02:40:10;;;;;;;4.67;3.10;;;3.10;99.90;;;;;;5453402;26;20322;-66
2024/04/25 02:42:35;;;;;;;3.30;2.50;;;3.20;99.90;;;;;;5453477;26;20211;-65
2024/04/25 02:45:01;;;;;;;5.70;3.10;;;3.10;99.90;;;;;;5453547;26;20436;-65
2024/04/25 02:47:26;;;;;;;3.30;3.00;;;3.20;99.90;;;;;;5451408;26;20218;-65
2024/04/25 02:49:52;;;;;;;3.10;2.83;;;3.20;99.90;;;;;;5453475;26;20655;-65
2024/04/25 02:52:18;;;;;;;4.60;2.97;;;3.20;99.90;;;;;;5453337;26;20617;-65
2024/04/25 02:54:43;;;;;;;3.63;2.93;;;3.30;99.90;;;;;;5453574;26;20217;-65
2024/04/25 02:57:09;;;;;;;7.50;3.70;;;3.40;99.90;;;;;;5453233;26;20217;-65
2024/04/25 02:59:34;;;;;;;4.77;2.97;;;3.40;99.90;;;;;;5453173;26;20253;-65
2024/04/25 03:02:00;;;;;;;3.37;2.67;;;3.40;99.90;;;;;;5453139;26;20230;-65
2024/04/25 03:04:26;;;;;;;4.70;3.20;;;3.40;99.90;;;;;;5453262;26;20215;-66
2024/04/25 03:06:51;;;;;;;4.20;3.20;;;3.40;99.90;;;;;;5453480;26;20264;-65
2024/04/25 03:09:17;;;;;;;2.90;2.37;;;3.50;99.90;;;;;;5453095;26;20218;-65
2024/04/25 03:11:42;;;;;;;6.50;3.23;;;3.50;99.90;;;;;;5452892;26;20833;-65
2024/04/25 03:14:08;;;;;;;3.60;2.60;;;3.60;99.90;;;;;;5453431;26;20253;-65
2024/04/25 03:16:34;;;;;;;10.20;2.70;;;3.70;99.70;;;;;;5453173;26;20218;-65
2024/04/25 03:18:59;;;;;;;4.60;2.87;;;3.90;99.50;;;;;;5453211;26;20315;-65
2024/04/25 03:21:25;;;;;;;4.17;3.03;;;3.80;99.40;;;;;;5452704;26;20687;-65
2024/04/25 03:23:50;;;;;;;3.20;3.00;;;3.70;99.50;;;;;;5453148;26;20218;-65
2024/04/25 03:26:16;;;;;;;3.60;3.07;;;3.70;99.50;;;;;;5452938;26;20215;-65
2024/04/25 03:28:41;;;;;;;4.83;2.93;;;3.70;99.40;;;;;;5453015;26;20214;-65
2024/04/25 03:31:07;;;;;;;4.83;3.47;;;3.80;99.50;;;;;;5452530;26;20322;-65
2024/04/25 03:33:33;;;;;;;2.97;2.73;;;3.90;99.10;;;;;;5452968;26;20543;-65
2024/04/25 03:35:58;;;;;;;2.80;2.50;;;3.80;99.00;;;;;;5453526;26;21102;-65
2024/04/25 03:38:24;;;;;;;8.40;3.50;;;3.90;99.20;;;;;;5453055;26;20245;-65
2024/04/25 03:40:50;;;;;;;4.40;4.07;;;3.90;99.10;;;;;;5465143;21;20263;-59
2024/04/25 03:43:15;;;;;;;3.53;2.97;;;3.90;98.80;;;;;;5416792;26;20250;-58
2024/04/25 03:45:41;;;;;;;5.23;3.40;;;3.70;98.70;;;;;;5416863;26;20215;-61
2024/04/25 03:48:06;;;;;;;5.33;2.87;;;3.60;99.00;;;;;;5416848;26;20254;-61
2024/04/25 03:50:32;;;;;;;3.20;2.90;;;3.50;99.40;;;;;;5416389;26;20291;-59
2024/04/25 03:52:58;;;;;;;3.13;2.85;;;3.50;99.60;;;;;;5416820;26;20320;-61
2024/04/25 03:55:24;;;;;;;3.00;2.77;;;3.60;99.80;;;;;;5416301;26;20211;-61
2024/04/25 03:57:50;;;;;;;3.20;2.90;;;3.70;99.70;;;;;;5416726;26;20254;-61
2024/04/25 04:00:16;;;;;;;6.18;4.10;;;3.80;99.60;;;;;;5416590;26;20215;-61
2024/04/25 04:02:41;;;;;;;3.57;2.90;;;3.80;99.30;;;;;;5385087;26;20615;-59
2024/04/25 04:05:07;;;;;;;4.67;3.70;;;3.70;99.20;;;;;;5385134;26;20272;-59
2024/04/25 04:07:33;;;;;;;4.43;2.63;;;3.70;99.20;;;;;;5416302;26;20254;-59
2024/04/25 04:09:59;;;;;;;7.93;3.53;;;3.80;99.00;;;;;;5384584;26;20544;-59
2024/04/25 04:12:24;;;;;;;2.93;2.73;;;3.90;99.00;;;;;;5416225;26;20285;-59
2024/04/25 04:14:50;;;;;;;3.13;2.93;;;3.80;98.90;;;;;;5416434;26;20227;-59
2024/04/25 04:17:16;;;;;;;4.00;2.57;;;3.60;98.90;;;;;;5416313;26;20227;-59
2024/04/25 04:19:41;;;;;;;3.57;2.70;;;3.50;99.10;;;;;;5416258;26;20246;-59
2024/04/25 04:22:07;;;;;;;3.30;3.00;;;3.50;99.10;;;;;;5416059;26;20227;-59
2024/04/25 04:24:34;;;;;;;4.20;3.60;;;3.60;99.20;;;;;;5416161;26;20728;-59
2024/04/25 04:27:00;;;;;;;13.95;3.50;;;3.60;99.10;;;;;;5416348;26;20212;-59
2024/04/25 04:29:26;;;;;;;4.73;2.90;;;3.60;99.00;;;;;;5384896;26;20246;-59
2024/04/25 04:31:51;;;;;;;5.93;3.63;;;3.50;98.90;;;;;;5416267;26;20227;-59
2024/04/25 04:34:17;;;;;;;5.00;3.20;;;3.50;99.00;;;;;;5384911;26;20683;-59
2024/04/25 04:36:43;;;;;;;7.73;3.60;;;3.50;99.00;;;;;;5416082;26;20219;-59
2024/04/25 04:39:10;;;;;;;2.70;2.50;;;3.60;99.00;;;;;;5384549;26;20219;-59
2024/04/25 04:41:36;;;;;;;3.58;2.75;;;3.60;98.90;;;;;;5415748;26;20673;-59
2024/04/25 04:44:02;;;;;;;3.00;2.70;;;3.60;98.90;;;;;;5415990;26;20208;-59
2024/04/25 04:46:28;;;;;;;2.80;2.33;;;3.70;98.80;;;;;;5416028;26;20560;-59
2024/04/25 04:48:53;;;;;;;3.57;3.00;;;3.80;98.50;;;;;;5416224;26;20204;-59
2024/04/25 04:51:19;;;;;;;3.43;3.13;;;3.80;98.10;;;;;;5414954;26;20320;-59
2024/04/25 04:53:45;;;;;;;2.77;2.50;;;3.70;98.20;;;;;;5415885;26;20250;-59
2024/04/25 04:56:11;;;;;;;9.32;3.67;;;3.90;98.40;;;;;;5415869;26;20437;-59
2024/04/25 04:58:37;;;;;;;2.97;2.67;;;3.90;98.40;;;;;;5415888;26;20677;-59
2024/04/25 05:01:04;;;;;;;5.47;3.97;;;3.90;98.40;;;;;;5415204;26;20219;-59
2024/04/25 05:03:30;;;;;;;5.45;3.40;;;3.90;98.40;;;;;;5415697;26;20211;-59
2024/04/25 05:05:55;;;;;;;3.73;2.80;;;3.90;98.40;;;;;;5415671;26;20550;-59
2024/04/25 05:08:21;;;;;;;4.27;3.87;;;3.90;98.60;;;;;;5415456;26;20484;-59
2024/04/25 05:10:47;;;;;;;6.97;2.93;;;4.00;98.50;;;;;;5415161;26;20224;-59
2024/04/25 05:13:13;;;;;;;3.13;2.93;;;4.00;98.20;;;;;;5415818;26;20880;-59
2024/04/25 05:15:39;;;;;;;2.80;2.60;;;4.00;98.30;;;;;;5384389;26;20586;-59
2024/04/25 05:18:05;;;;;;;2.90;2.47;;;3.90;98.40;;;;;;5415393;26;20422;-60
2024/04/25 05:20:30;;;;;;;6.57;3.40;;;3.90;98.60;;;;;;5383720;26;20215;-60
2024/04/25 05:22:56;;;;;;;5.33;2.93;;;4.00;98.60;;;;;;5415397;26;20309;-59
2024/04/25 05:25:23;;;;;;;4.37;3.30;;;4.00;98.70;;;;;;5415474;26;20250;-59
2024/04/25 05:27:48;;;;;;;4.32;3.40;;;4.00;98.70;;;;;;5415321;26;20482;-60
2024/04/25 05:30:15;;;;;;;2.33;2.13;;;4.10;98.70;;;;;;5415248;26;20215;-60
2024/04/25 05:32:41;;;;;;;3.58;2.67;;;4.20;98.30;;;;;;5383670;26;20235;-60
2024/04/25 05:35:07;;;;;;;5.17;3.00;;;4.20;98.00;;;;;;5415287;26;20380;-60
2024/04/25 05:37:32;;;;;;;8.60;2.97;;;4.20;97.90;;;;;;5414882;26;20453;-60
2024/04/25 05:39:58;;;;;;;5.60;3.80;;;4.10;97.90;;;;;;5415118;26;20252;-60
2024/04/25 05:42:24;;;;;;;4.80;3.40;;;4.10;98.10;;;;;;5415207;26;20224;-60
2024/04/25 05:44:49;;;;;;;4.37;3.97;;;4.00;98.30;;;;;;5415215;26;20208;-60
2024/04/25 05:47:17;;;;;;;6.60;4.60;;;4.10;98.40;;;;;;5415198;26;20207;-60
2024/04/25 05:49:45;;;;;;;4.20;2.80;;;4.10;98.40;;;;;;5414731;26;20211;-60
2024/04/25 05:52:12;;;;;;;4.10;2.80;;;4.20;98.50;;;;;;5414546;26;20294;-60
2024/04/25 05:54:38;;;;;;;4.40;3.08;;;4.30;98.30;;;;;;5415018;26;20275;-59
2024/04/25 05:57:04;;;;;;;5.43;3.60;;;4.30;97.90;;;;;;5414944;26;20208;-59
2024/04/25 05:59:30;;;;;;;2.80;2.60;;;4.30;97.80;;;;;;5414552;26;20848;-60
2024/04/25 06:01:58;;;;;;;6.13;4.07;;;4.40;97.90;;;;;;5414490;26;20287;-59
2024/04/25 06:04:24;;;;;;;4.22;2.72;;;4.50;97.90;;;;;;5416405;26;20697;-60
2024/04/25 06:06:50;;;;;;;5.10;3.83;;;4.50;97.60;;;;;;5418177;26;20220;-60
2024/04/25 06:09:16;;;;;;;9.00;3.87;;;4.60;97.70;;;;;;5418426;26;20261;-60
2024/04/25 06:11:41;;;;;;;4.13;3.47;;;4.70;97.60;;;;;;5418174;26;20223;-60
2024/04/25 06:14:07;;;;;;;4.23;3.37;;;4.90;97.70;;;;;;5418204;26;20258;-60
2024/04/25 06:16:33;;;;;;;9.03;2.90;;;5.00;97.00;;;;;;5418025;26;20251;-60
2024/04/25 06:18:58;;;;;;;4.03;3.63;;;5.10;96.90;;;;;;5418313;26;20284;-60
2024/04/25 06:21:24;;;;;;;3.90;3.20;;;5.20;96.80;;;;;;5417471;26;21094;-60
2024/04/25 06:23:49;;;;;;;3.50;2.53;;;5.30;96.30;;;;;;5418286;26;20322;-60
2024/04/25 06:26:15;;;;;;;3.70;2.60;;;5.20;96.00;;;;;;5417956;26;20682;-60
2024/04/25 06:28:41;;;;;;;3.83;2.90;;;5.10;95.80;;;;;;5418009;26;20209;-60
2024/04/25 06:31:06;;;;;;;4.30;3.23;;;5.10;96.00;;;;;;5417592;26;20221;-60
2024/04/25 06:33:32;;;;;;;3.50;3.30;;;5.30;95.90;;;;;;5417863;26;20249;-60
2024/04/25 06:35:57;;;;;;;3.40;3.10;;;5.40;95.20;;;;;;5417767;26;20741;-60
2024/04/25 06:38:23;;;;;;;2.10;1.90;;;5.40;94.70;;;;;;5417858;26;20223;-60
2024/04/25 06:40:53;;;;;;;8.07;3.37;;;5.30;95.00;;;;;;5417471;26;20278;-60
2024/04/25 06:43:18;;;;;;;5.30;3.28;;;5.40;95.10;;;;;;5417909;26;20265;-60
2024/04/25 06:45:44;;;;;;;3.47;2.90;;;5.50;94.80;;;;;;5417679;26;20246;-60
2024/04/25 06:48:11;;;;;;;2.63;2.37;;;5.60;94.40;;;;;;5356945;26;20224;-60
2024/04/25 06:50:38;;;;;;;4.15;2.28;;;5.70;94.60;;;;;;5417076;26;20251;-60
2024/04/25 06:53:04;;;;;;;4.65;2.95;;;5.80;94.30;;;;;;5417512;26;20297;-60
2024/04/25 06:55:30;;;;;;;3.05;2.67;;;6.00;94.60;;;;;;5417682;26;20590;-60
2024/04/25 06:57:55;;;;;;;4.50;2.93;;;6.00;94.60;;;;;;5417935;26;20250;-60
2024/04/25 07:00:21;;;;;;;2.97;2.60;;;6.10;93.90;;;;;;5417394;26;20621;-60
2024/04/25 07:02:47;;;;;;;3.10;2.23;;;6.00;93.80;;;;;;5417134;26;20219;-60
2024/04/25 07:05:13;;;;;;;5.27;3.33;;;5.90;93.90;;;;;;5417441;26;20745;-60
2024/04/25 07:07:39;;;;;;;2.80;2.58;;;5.50;93.20;;;;;;5385883;26;20697;-60
2024/04/25 07:10:05;;;;;;;2.93;2.60;;;5.20;94.30;;;;;;5417294;26;20216;-60
2024/04/25 07:12:32;;;;;;;5.10;2.85;;;5.20;95.00;;;;;;5417104;26;20579;-60
2024/04/25 07:15:00;;;;;;;6.68;3.45;;;5.50;94.90;;;;;;5417138;26;20212;-60
2024/04/25 07:17:26;;;;;;;5.88;3.38;;;5.50;94.90;;;;;;5417126;26;20217;-60
2024/04/25 07:19:52;;;;;;;3.60;2.33;;;5.80;94.80;;;;;;5417227;26;20804;-59
2024/04/25 07:22:17;;;;;;;3.63;3.30;;;6.20;94.40;;;;;;5417021;26;20984;-59
2024/04/25 07:24:43;;;;;;;4.20;3.80;;;6.00;93.30;;;;;;5417376;26;20225;-59
2024/04/25 07:27:09;;;;;;;3.90;3.60;;;5.70;93.70;;;;;;5417114;26;20224;-59
2024/04/25 07:29:42;;;;;;;3.47;2.67;;;5.60;94.10;;;;;;5417050;26;20445;-59
2024/04/25 07:32:08;;;;;;;7.00;3.47;;;5.50;94.50;;;;;;5416828;26;20256;-59
2024/04/25 07:34:33;;;;;;;4.73;3.90;;;5.40;94.60;;;;;;5416838;26;20222;-59
2024/04/25 07:36:59;;;;;;;3.77;2.90;;;5.30;94.70;;;;;;5416725;26;20221;-59
2024/04/25 07:39:25;;;;;;;5.47;3.92;;;5.30;94.50;;;;;;5385490;26;20258;-59
2024/04/25 07:41:51;;;;;;;7.83;3.67;;;5.20;94.70;;;;;;5417017;26;20235;-59
2024/04/25 07:44:16;;;;;;;7.57;4.00;;;5.10;94.60;;;;;;5417057;26;20262;-59
2024/04/25 07:46:42;;;;;;;3.30;3.00;;;5.10;94.80;;;;;;5416801;26;20211;-59
2024/04/25 07:49:12;;;;;;;4.17;3.77;;;5.00;94.30;;;;;;5417040;26;20330;-59
2024/04/25 07:51:38;;;;;;;3.88;3.13;;;4.90;94.10;;;;;;5416766;26;20249;-59
2024/04/25 07:54:03;;;;;;;4.28;3.22;;;5.00;94.70;;;;;;5416589;26;20274;-59
2024/04/25 07:56:29;;;;;;;7.70;3.30;;;5.20;94.80;;;;;;5416665;26;20674;-60
2024/04/25 07:58:55;;;;;;;4.87;3.07;;;5.20;94.60;;;;;;5416775;26;20207;-59
2024/04/25 08:01:21;;;;;;;3.83;3.17;;;5.40;94.90;;;;;;5416022;26;20455;-59
2024/04/25 08:03:46;;;;;;;6.93;3.30;;;5.50;94.90;;;;;;5416423;26;20702;-59
2024/04/25 08:06:12;;;;;;;3.63;2.80;;;5.70;94.30;;;;;;5385267;26;20220;-59
2024/04/25 08:08:39;;;;;;;3.43;3.07;;;5.90;94.00;;;;;;5416732;26;20603;-59
2024/04/25 08:11:06;;;;;;;4.13;3.05;;;6.30;93.70;;;;;;5415994;26;20668;-59
2024/04/25 08:13:32;;;;;;;4.93;3.15;;;6.50;92.90;;;;;;5385053;26;20220;-59
2024/04/25 08:15:57;;;;;;;9.98;3.22;;;7.00;92.60;;;;;;5416201;26;20321;-59
2024/04/25 08:18:23;;;;;;;3.63;3.33;;;8.00;91.10;;;;;;5416333;26;20557;-59
2024/04/25 08:20:49;;;;;;;3.80;2.30;;;9.00;90.40;;;;;;5415958;26;20629;-60
2024/04/25 08:23:15;;;;;;;2.50;2.10;;;10.00;86.40;;;;;;5416401;26;20744;-60
2024/04/25 08:25:41;;;;;;;3.23;2.87;;;10.90;79.30;;;;;;5416028;26;20216;-60
2024/04/25 08:28:10;;;;;;;6.33;2.40;;;11.40;77.80;;;;;;5415412;26;20495;-60
2024/04/25 08:30:38;;;;;;;3.37;2.27;;;12.20;75.40;;;;;;5415771;26;20461;-60
2024/04/25 08:33:04;;;;;;;2.70;2.10;;;12.30;72.70;;;;;;5384778;26;20465;-60
2024/04/25 08:35:30;;;;;;;2.80;2.50;;;12.50;73.10;;;;;;5416175;26;20437;-60
2024/04/25 08:37:55;;;;;;;3.27;2.53;;;12.80;73.60;;;;;;5416146;26;20254;-60
2024/04/25 08:40:21;;;;;;;4.83;3.00;;;12.60;71.00;;;;;;5415882;26;20702;-60
2024/04/25 08:42:50;;;;;;;4.10;1.73;;;12.30;65.70;;;;;;5415720;26;20223;-60
2024/04/25 08:45:16;;;;;;;3.63;2.43;;;11.80;68.90;;;;;;5416027;26;20258;-60
2024/04/25 08:47:42;;;;;;;7.90;2.83;;;11.20;68.50;;;;;;5415830;26;20588;-60
2024/04/25 08:50:09;;;;;;;2.47;2.13;;;9.90;68.90;;;;;;5415878;26;20430;-60
2024/04/25 08:52:40;;;;;;;4.97;3.20;;;9.30;73.70;;;;;;5415734;26;20457;-60
2024/04/25 08:55:08;;;;;;;2.53;2.33;;;8.90;78.90;;;;;;5415976;26;20437;-60
2024/04/25 08:57:34;;;;;;;4.10;2.72;;;8.20;80.10;;;;;;5415694;26;20735;-59
2024/04/25 09:00:01;;;;;;;3.80;2.35;;;7.90;77.60;;;;;;5415566;26;20316;-60
2024/04/25 09:02:27;;;;;;;3.15;2.22;;;7.70;79.00;;;;;;5415706;26;20232;-59
2024/04/25 09:04:56;;;;;;;3.10;2.70;;;7.70;82.30;;;;;;5415581;26;20218;-60
2024/04/25 09:07:22;;;;;;;3.30;2.95;;;7.80;85.10;;;;;;5415760;26;20211;-60
2024/04/25 09:09:48;;;;;;;5.78;2.85;;;7.90;84.80;;;;;;5415813;26;20279;-60
2024/04/25 09:12:14;;;;;;;3.50;3.20;;;8.00;85.90;;;;;;5415368;26;20596;-60
2024/04/25 09:14:39;;;;;;;4.70;3.00;;;8.10;83.50;;;;;;5415846;26;20280;-60
2024/04/25 09:17:12;;;;;;;4.50;3.00;;;7.90;81.10;;;;;;5415472;26;20246;-60
2024/04/25 09:19:40;;;;;;;2.35;2.15;;;7.80;82.30;;;;;;5415460;26;20211;-60
2024/04/25 09:22:06;;;;;;;5.50;3.03;;;8.00;83.90;;;;;;5415007;26;20285;-59
2024/04/25 09:24:31;;;;;;;4.87;3.63;;;8.10;85.20;;;;;;5415248;26;20219;-60
2024/04/25 09:26:57;;;;;;;5.97;3.37;;;8.10;84.70;;;;;;5415413;26;20797;-60
2024/04/25 09:29:23;;;;;;;4.33;2.83;;;8.10;85.40;;;;;;5415163;26;20265;-59
2024/04/25 09:31:52;;;;;;;4.40;3.10;;;8.00;86.30;;;;;;5414963;26;20574;-59
2024/04/25 09:34:18;;;;;;;2.80;2.60;;;7.90;86.20;;;;;;5415400;26;20898;-60
2024/04/25 09:36:44;;;;;;;4.97;3.40;;;8.00;87.00;;;;;;5415356;26;20210;-59
2024/04/25 09:39:10;;;;;;;3.30;3.10;;;7.80;85.10;;;;;;5414813;26;20501;-60
2024/04/25 09:41:37;;;;;;;4.10;2.73;;;7.60;85.30;;;;;;5468064;21;20743;-61
2024/04/25 09:44:03;;;;;;;3.00;2.70;;;7.40;84.90;;;;;;5451213;26;20252;-61
2024/04/25 09:46:37;;;;;;;5.13;3.75;;;7.10;85.90;;;;;;5450874;26;20578;-61
2024/04/25 09:49:04;;;;;;;11.10;4.43;;;6.80;88.10;;;;;;5450878;26;20217;-61
2024/04/25 09:51:47;;;;;;;4.72;3.80;;;6.60;90.00;;;;;;5450125;26;20240;-61
2024/04/25 09:54:22;;;;;;;6.80;2.80;;;6.60;90.20;;;;;;5450630;26;20225;-63
2024/04/25 09:56:50;;;;;;;3.67;2.80;;;6.50;90.20;;;;;;5450576;26;20211;-61
2024/04/25 09:59:36;;;;;;;4.03;3.05;;;6.60;90.50;;;;;;5450323;26;20317;-61
2024/04/25 10:02:03;;;;;;;4.22;3.83;;;6.90;90.70;;;;;;5450182;26;20229;-61
2024/04/25 10:04:31;;;;;;;4.20;3.78;;;7.40;90.50;;;;;;5450519;26;20256;-61
2024/04/25 10:07:02;;;;;;;3.38;3.10;;;7.70;90.10;;;;;;5450706;26;20222;-61
2024/04/25 10:09:30;;;;;;;3.97;3.50;;;7.80;87.80;;;;;;5450332;26;20214;-61
2024/04/25 10:11:58;;;;;;;5.57;2.53;;;7.80;88.30;;;;;;5450272;26;20229;-61
2024/04/25 10:14:25;;;;;;;4.45;2.50;;;7.60;87.30;;;;;;5450674;26;20634;-61
2024/04/25 10:16:51;;;;;;;3.50;2.78;;;7.40;87.50;;;;;;5450102;26;20816;-61
2024/04/25 10:19:17;;;;;;;2.85;2.60;;;7.20;88.20;;;;;;5450290;26;20260;-61
2024/04/25 10:21:49;;;;;;;3.27;2.93;;;7.00;89.30;;;;;;5450125;26;20734;-61
2024/04/25 10:24:14;;;;;;;4.82;2.85;;;6.90;90.20;;;;;;5418476;26;20232;-60
2024/04/25 10:26:49;;;;;;;5.90;4.60;;;6.90;90.70;;;;;;5450329;26;20214;-61
2024/04/25 10:29:15;;;;;;;5.95;3.50;;;7.10;91.00;;;;;;5418221;26;20261;-61
2024/04/25 10:31:41;;;;;;;3.80;3.50;;;7.40;90.90;;;;;;5449819;26;20623;-61
2024/04/25 10:34:08;;;;;;;3.33;2.95;;;7.60;90.40;;;;;;5450213;26;20319;-61
2024/04/25 10:36:35;;;;;;;3.95;2.97;;;8.00;89.40;;;;;;5450079;26;20250;-61
2024/04/25 10:39:01;;;;;;;3.30;2.72;;;8.50;89.50;;;;;;5450323;26;20214;-61
2024/04/25 10:41:33;;;;;;;7.07;3.15;;;8.40;87.00;;;;;;5449535;26;20607;-61
2024/04/25 10:43:59;;;;;;;5.38;3.30;;;8.50;88.60;;;;;;5449834;26;20582;-61
2024/04/25 10:46:25;;;;;;;4.30;3.22;;;8.30;86.30;;;;;;5450016;26;20218;-60
2024/04/25 10:48:51;;;;;;;2.77;2.50;;;7.90;87.20;;;;;;5449921;26;20269;-60
2024/04/25 10:51:16;;;;;;;3.00;2.70;;;8.00;87.80;;;;;;5452753;26;20311;-60
2024/04/25 10:53:42;;;;;;;7.13;3.70;;;7.70;87.70;;;;;;5453554;26;20219;-61
2024/04/25 10:56:10;;;;;;;3.30;3.00;;;7.60;88.00;;;;;;5453950;26;20256;-61
2024/04/25 10:58:35;;;;;;;4.55;3.00;;;7.70;90.00;;;;;;5423043;26;20517;-60
2024/04/25 11:01:01;;;;;;;6.33;3.40;;;7.70;87.20;;;;;;5453276;26;20218;-60
2024/04/25 11:03:27;;;;;;;3.00;2.70;;;7.70;87.30;;;;;;5453459;26;20226;-61
2024/04/25 11:05:52;;;;;;;3.60;1.97;;;7.80;86.10;;;;;;5453433;26;20248;-61
2024/04/25 11:08:19;;;;;;;3.03;2.50;;;8.00;86.20;;;;;;5453344;26;20214;-61
2024/04/25 11:10:45;;;;;;;4.20;3.13;;;8.40;84.60;;;;;;5421137;26;20218;-61
2024/04/25 11:13:11;;;;;;;2.50;2.10;;;8.50;83.20;;;;;;5453322;26;20495;-61
2024/04/25 11:15:41;;;;;;;6.38;2.30;;;8.50;84.00;;;;;;5453348;26;20797;-61
2024/04/25 11:18:07;;;;;;;3.92;2.20;;;8.50;81.40;;;;;;5421458;26;20564;-61
2024/04/25 11:20:34;;;;;;;2.77;2.03;;;8.70;82.50;;;;;;5452895;26;20294;-61
2024/04/25 11:23:08;;;;;;;3.80;2.75;;;9.10;83.00;;;;;;5453146;26;20456;-61
2024/04/25 11:25:34;;;;;;;4.38;2.63;;;9.70;80.90;;;;;;5453014;26;20323;-61
2024/04/25 11:28:00;;;;;;;6.87;2.67;;;9.90;76.30;;;;;;5452968;26;20230;-61
2024/04/25 11:30:26;;;;;;;2.33;2.13;;;10.10;76.10;;;;;;5452793;26;20218;-61
2024/04/25 11:32:52;;;;;;;2.97;2.73;;;10.10;74.40;;;;;;5452705;26;20876;-61
2024/04/25 11:35:18;;;;;;;2.40;2.20;;;9.90;76.00;;;;;;5453014;26;20210;-61
2024/04/25 11:37:44;;;;;;;4.72;2.40;;;9.70;77.60;;;;;;5452866;26;20261;-61
2024/04/25 11:40:10;;;;;;;4.97;2.60;;;9.30;78.20;;;;;;5452594;26;20607;-61
2024/04/25 11:42:36;;;;;;;2.65;2.38;;;8.80;78.40;;;;;;5420801;26;20246;-61
2024/04/25 11:45:02;;;;;;;3.33;2.10;;;8.30;80.70;;;;;;5452996;26;20214;-61
2024/04/25 11:47:28;;;;;;;3.57;2.90;;;8.10;83.10;;;;;;5452646;26;20440;-61
2024/04/25 11:49:54;;;;;;;2.67;2.47;;;8.00;83.20;;;;;;5452711;26;20261;-61
2024/04/25 11:52:19;;;;;;;2.57;2.33;;;8.10;83.50;;;;;;5452553;26;20238;-61
2024/04/25 11:54:45;;;;;;;2.20;2.10;;;8.00;81.50;;;;;;5420897;26;20303;-61
2024/04/25 11:57:10;;;;;;;3.40;2.23;;;8.10;84.10;;;;;;5452781;26;20249;-61
2024/04/25 11:59:36;;;;;;;3.20;2.50;;;8.30;83.00;;;;;;5452616;26;20222;-61
2024/04/25 12:02:02;;;;;;;4.97;2.10;;;8.40;80.40;;;;;;5450832;26;20234;-61
2024/04/25 12:04:27;;;;;;;5.73;2.00;;;8.50;79.30;;;;;;5452321;26;20284;-61
2024/04/25 12:06:53;;;;;;;1.50;1.40;;;8.60;78.40;;;;;;5452530;26;20218;-61
2024/04/25 12:09:19;;;;;;;1.57;1.47;;;8.60;80.50;;;;;;5452165;26;20218;-61
2024/04/25 12:11:46;;;;;;;4.63;3.27;;;8.70;78.40;;;;;;5420456;26;20230;-61
2024/04/25 12:14:12;;;;;;;2.28;2.05;;;8.70;76.80;;;;;;5452399;26;20913;-61
2024/04/25 12:16:37;;;;;;;5.53;3.10;;;8.70;76.80;;;;;;5452414;26;20214;-61
2024/04/25 12:19:03;;;;;;;4.37;2.30;;;8.50;75.50;;;;;;5452325;26;20325;-61
2024/04/25 12:21:29;;;;;;;6.47;2.20;;;8.40;76.50;;;;;;5451880;26;20233;-61
2024/04/25 12:23:54;;;;;;;1.97;1.83;;;8.40;75.90;;;;;;5452102;26;20218;-61
2024/04/25 12:26:20;;;;;;;5.10;2.10;;;8.70;78.50;;;;;;5452253;26;20214;-61
2024/04/25 12:28:46;;;;;;;3.53;2.10;;;8.90;76.30;;;;;;5452153;26;20210;-61
2024/04/25 12:31:13;;;;;;;2.28;2.00;;;9.00;74.90;;;;;;5451697;26;20755;-61
2024/04/25 12:33:40;;;;;;;3.67;3.30;;;8.80;74.10;;;;;;5452152;26;20645;-61
2024/04/25 12:36:06;;;;;;;8.98;4.47;;;8.80;75.20;;;;;;5420657;26;20249;-61
2024/04/25 12:38:32;;;;;;;2.20;2.00;;;8.90;74.00;;;;;;5451852;26;20210;-61
2024/04/25 12:40:58;;;;;;;5.87;2.47;;;9.10;72.60;;;;;;5451503;26;20260;-61
2024/04/25 12:43:24;;;;;;;3.10;1.90;;;9.40;74.60;;;;;;5452088;26;20218;-61
2024/04/25 12:45:51;;;;;;;2.97;2.10;;;9.60;72.20;;;;;;5420150;26;20356;-61
2024/04/25 12:48:17;;;;;;;4.80;2.33;;;9.80;70.90;;;;;;5420551;26;20551;-61
2024/04/25 12:50:43;;;;;;;2.50;2.30;;;9.90;70.30;;;;;;5451557;26;20558;-61
2024/04/25 12:53:11;;;;;;;2.60;2.17;;;9.80;71.20;;;;;;5451682;26;20467;-61